createdAt,value
2018-10-17T00:01:02.462Z,32.33
2018-10-17T00:03:32.303Z,33.60
2018-10-17T00:06:01.212Z,33.60
2018-10-17T00:08:29.099Z,32.90
2018-10-17T00:11:00.979Z,33.00
2018-10-17T00:13:29.843Z,32.10
2018-10-17T00:15:58.715Z,32.30
2018-10-17T00:18:26.619Z,32.60
2018-10-17T00:20:54.484Z,32.33
2018-10-17T00:23:23.334Z,33.07
2018-10-17T00:25:51.238Z,33.43
2018-10-17T00:28:22.800Z,34.03
2018-10-17T00:30:50.755Z,33.70
2018-10-17T00:33:19.518Z,32.70
2018-10-17T00:35:48.436Z,32.97
2018-10-17T00:38:19.867Z,34.40
2018-10-17T00:40:47.741Z,34.20
2018-10-17T00:43:15.666Z,34.90
2018-10-17T00:45:44.526Z,34.20
2018-10-17T00:48:16.440Z,32.00
2018-10-17T00:50:49.268Z,32.33
2018-10-17T00:53:18.107Z,31.30
2018-10-17T00:55:47.932Z,32.50
2018-10-17T00:58:15.828Z,32.20
2018-10-17T01:00:45.715Z,33.97
2018-10-17T01:03:14.596Z,32.07
2018-10-17T01:05:43.511Z,31.27
2018-10-17T01:08:16.287Z,32.00
2018-10-17T01:10:44.159Z,31.27
2018-10-17T01:13:13.116Z,31.33
2018-10-17T01:15:41.931Z,31.47
2018-10-17T01:18:11.862Z,30.00
2018-10-17T01:20:44.743Z,31.53
2018-10-17T01:23:17.607Z,31.60
2018-10-17T01:25:45.496Z,30.70
2018-10-17T01:28:18.966Z,33.37
2018-10-17T01:30:47.879Z,32.47
2018-10-17T01:33:17.775Z,30.63
2018-10-17T01:35:47.604Z,31.27
2018-10-17T01:38:17.513Z,30.40
2018-10-17T01:40:46.383Z,32.33
2018-10-17T01:43:15.383Z,32.47
2018-10-17T01:45:43.151Z,31.90
2018-10-17T01:48:12.992Z,31.40
2018-10-17T01:50:41.851Z,31.27
2018-10-17T01:53:10.840Z,32.20
2018-10-17T01:55:39.635Z,32.07
2018-10-17T01:58:08.567Z,31.90
2018-10-17T02:00:38.439Z,32.37
2018-10-17T02:03:07.349Z,32.70
2018-10-17T02:05:35.203Z,33.37
2018-10-17T02:08:05.174Z,30.37
2018-10-17T02:10:34.028Z,32.13
2018-10-17T02:13:03.995Z,33.17
2018-10-17T02:15:32.810Z,32.97
2018-10-17T02:18:00.710Z,33.40
2018-10-17T02:20:30.628Z,33.53
2018-10-17T02:22:59.556Z,33.77
2018-10-17T02:25:29.415Z,31.33
2018-10-17T02:27:58.288Z,30.40
2018-10-17T02:30:31.415Z,30.53
2018-10-17T02:32:59.283Z,30.20
2018-10-17T02:35:31.745Z,31.20
2018-10-17T02:38:01.652Z,29.83
2018-10-17T02:40:29.535Z,30.93
2018-10-17T02:42:58.479Z,29.87
2018-10-17T02:45:26.420Z,30.50
2018-10-17T02:47:55.275Z,31.97
2018-10-17T02:50:25.184Z,30.87
2018-10-17T02:52:54.195Z,31.10
2018-10-17T02:55:26.234Z,30.90
2018-10-17T02:57:54.152Z,31.30
2018-10-17T03:00:22.083Z,30.03
2018-10-17T03:02:51.975Z,30.30
2018-10-17T03:05:20.923Z,29.17
2018-10-17T03:07:48.764Z,31.10
2018-10-17T03:10:16.670Z,32.77
2018-10-17T03:12:44.580Z,32.60
2018-10-17T03:15:12.476Z,30.37
2018-10-17T03:17:42.355Z,31.23
2018-10-17T03:20:11.754Z,33.17
2018-10-17T03:22:39.812Z,34.60
2018-10-17T03:25:08.336Z,33.60
2018-10-17T03:27:40.108Z,33.30
2018-10-17T03:30:08.000Z,31.60
2018-10-17T03:32:35.912Z,33.63
2018-10-17T03:35:03.854Z,33.73
2018-10-17T03:37:31.696Z,32.97
2018-10-17T03:39:59.612Z,31.90
2018-10-17T03:42:28.496Z,32.73
2018-10-17T03:44:56.392Z,32.53
2018-10-17T03:47:25.246Z,32.23
2018-10-17T03:49:53.285Z,32.10
2018-10-17T03:52:21.092Z,31.73
2018-10-17T03:54:50.002Z,29.50
2018-10-17T03:57:19.905Z,30.95
2018-10-17T03:59:48.714Z,31.87
2018-10-17T04:02:17.495Z,29.40
2018-10-17T04:04:45.352Z,30.00
2018-10-17T04:07:14.331Z,31.47
2018-10-17T04:09:48.399Z,31.00
2018-10-17T04:12:16.375Z,31.60
2018-10-17T04:14:44.289Z,32.53
2018-10-17T04:17:12.257Z,33.70
2018-10-17T04:19:40.032Z,31.80
2018-10-17T04:22:07.941Z,32.50
2018-10-17T04:24:36.797Z,32.80
2018-10-17T04:27:04.672Z,33.67
2018-10-17T04:29:33.568Z,29.90
2018-10-17T04:32:01.437Z,30.80
2018-10-17T04:34:29.310Z,30.67
2018-10-17T04:36:57.206Z,30.63
2018-10-17T04:39:25.086Z,33.00
2018-10-17T04:41:52.985Z,31.40
2018-10-17T04:44:20.839Z,32.70
2018-10-17T04:46:52.091Z,33.37
2018-10-17T04:49:22.012Z,32.40
2018-10-17T04:51:49.861Z,33.33
2018-10-17T04:54:17.788Z,31.70
2018-10-17T04:56:45.716Z,32.47
2018-10-17T04:59:14.686Z,31.60
2018-10-17T05:01:43.485Z,32.67
2018-10-17T05:04:11.366Z,32.20
2018-10-17T05:06:39.228Z,31.40
2018-10-17T05:09:08.145Z,34.63
2018-10-17T05:11:40.371Z,33.90
2018-10-17T05:14:08.288Z,31.70
2018-10-17T05:16:40.501Z,34.10
2018-10-17T05:19:08.502Z,32.83
2018-10-17T05:21:38.285Z,33.27
2018-10-17T05:24:06.228Z,34.10
2018-10-17T05:26:35.144Z,31.77
2018-10-17T05:29:06.568Z,34.50
2018-10-17T05:31:35.396Z,33.50
2018-10-17T05:34:04.313Z,32.97
2018-10-17T05:36:35.316Z,33.83
2018-10-17T05:39:03.807Z,33.23
2018-10-17T05:41:31.672Z,31.27
2018-10-17T05:43:59.530Z,32.50
2018-10-17T05:46:27.424Z,32.47
2018-10-17T05:48:55.277Z,32.57
2018-10-17T05:51:28.476Z,30.93
2018-10-17T05:53:56.334Z,31.30
2018-10-17T05:56:25.257Z,34.20
2018-10-17T05:58:58.370Z,33.10
2018-10-17T06:01:26.300Z,31.90
2018-10-17T06:03:57.756Z,30.87
2018-10-17T06:06:31.457Z,32.40
2018-10-17T06:09:01.338Z,31.50
2018-10-17T06:11:29.248Z,32.37
2018-10-17T06:13:57.112Z,32.87
2018-10-17T06:16:28.604Z,33.30
2018-10-17T06:19:00.577Z,33.20
2018-10-17T06:21:34.332Z,33.43
2018-10-17T06:24:03.187Z,33.10
2018-10-17T06:26:33.121Z,32.67
2018-10-17T06:29:02.121Z,32.50
2018-10-17T06:31:30.884Z,34.20
2018-10-17T06:33:58.871Z,32.87
2018-10-17T06:36:26.625Z,31.50
2018-10-17T06:38:54.532Z,33.10
2018-10-17T06:41:22.397Z,32.35
2018-10-17T06:43:52.695Z,33.80
2018-10-17T06:46:20.553Z,33.10
2018-10-17T06:48:48.412Z,32.85
2018-10-17T06:51:16.349Z,31.70
2018-10-17T06:53:44.260Z,32.60
2018-10-17T06:56:13.200Z,34.57
2018-10-17T06:58:41.116Z,34.60
2018-10-17T07:01:08.998Z,36.20
2018-10-17T07:03:37.884Z,35.60
2018-10-17T07:06:06.775Z,36.80
2018-10-17T07:08:34.790Z,36.63
2018-10-17T07:11:02.618Z,36.90
2018-10-17T07:13:30.480Z,35.77
2018-10-17T07:16:02.056Z,36.13
2018-10-17T07:18:29.937Z,34.03
2018-10-17T07:20:58.762Z,34.13
2018-10-17T07:23:27.656Z,35.03
2018-10-17T07:25:56.560Z,36.17
2018-10-17T07:28:24.440Z,35.10
2018-10-17T07:30:54.379Z,33.77
2018-10-17T07:33:22.268Z,36.97
2018-10-17T07:35:50.188Z,37.17
2018-10-17T07:38:19.060Z,37.00
2018-10-17T07:40:49.035Z,36.20
2018-10-17T07:43:17.880Z,36.93
2018-10-17T07:45:45.825Z,35.90
2018-10-17T07:48:14.684Z,37.50
2018-10-17T07:50:42.508Z,37.47
2018-10-17T07:53:14.989Z,35.50
2018-10-17T07:55:43.841Z,36.20
2018-10-17T07:58:12.788Z,37.80
2018-10-17T08:00:41.648Z,36.50
2018-10-17T08:03:09.528Z,39.60
2018-10-17T08:05:38.404Z,40.70
2018-10-17T08:08:13.516Z,41.60
2018-10-17T08:10:43.340Z,41.80
2018-10-17T08:13:11.250Z,40.97
2018-10-17T08:15:40.104Z,41.90
2018-10-17T08:18:12.938Z,42.63
2018-10-17T08:20:41.810Z,39.90
2018-10-17T08:23:10.653Z,40.87
2018-10-17T08:25:38.553Z,39.73
2018-10-17T08:28:07.437Z,40.37
2018-10-17T08:30:35.290Z,40.30
2018-10-17T08:33:08.397Z,41.77
2018-10-17T08:35:37.352Z,41.70
2018-10-17T08:38:05.166Z,43.00
2018-10-17T08:40:33.032Z,40.93
2018-10-17T08:43:01.920Z,42.93
2018-10-17T08:45:30.804Z,43.27
2018-10-17T08:47:58.721Z,42.00
2018-10-17T08:50:27.571Z,43.20
2018-10-17T08:52:57.488Z,43.40
2018-10-17T08:55:26.439Z,44.93
2018-10-17T08:57:54.404Z,45.20
2018-10-17T09:00:23.212Z,44.70
2018-10-17T09:02:51.110Z,44.93
2018-10-17T09:05:19.976Z,43.10
2018-10-17T09:07:47.860Z,44.70
2018-10-17T09:10:16.739Z,43.70
2018-10-17T09:12:45.636Z,43.70
2018-10-17T09:15:14.529Z,45.80
2018-10-17T09:17:42.408Z,43.87
2018-10-17T09:20:15.214Z,45.20
2018-10-17T09:22:43.656Z,42.07
2018-10-17T09:25:11.557Z,43.70
2018-10-17T09:27:47.139Z,44.00
2018-10-17T09:30:15.024Z,41.87
2018-10-17T09:32:42.933Z,43.20
2018-10-17T09:35:12.888Z,45.63
2018-10-17T09:37:42.729Z,46.47
2018-10-17T09:40:14.468Z,45.93
2018-10-17T09:42:47.977Z,47.50
2018-10-17T09:45:16.901Z,44.27
2018-10-17T09:47:45.737Z,42.60
2018-10-17T09:50:13.606Z,43.40
2018-10-17T09:52:41.499Z,43.13
2018-10-17T09:55:13.156Z,40.37
2018-10-17T09:57:41.048Z,42.00
2018-10-17T10:00:16.599Z,39.87
2018-10-17T10:02:44.436Z,38.60
2018-10-17T10:05:13.341Z,39.17
2018-10-17T10:07:41.225Z,38.50
2018-10-17T10:10:11.154Z,36.97
2018-10-17T10:12:38.959Z,37.87
2018-10-17T10:15:07.876Z,37.73
2018-10-17T10:17:35.762Z,36.57
2018-10-17T10:20:07.948Z,39.40
2018-10-17T10:22:44.208Z,36.40
2018-10-17T10:25:14.220Z,35.93
2018-10-17T10:27:43.082Z,36.93
2018-10-17T10:30:13.054Z,39.20
2018-10-17T10:32:42.924Z,39.37
2018-10-17T10:35:10.755Z,37.77
2018-10-17T10:37:39.636Z,37.90
2018-10-17T10:40:15.858Z,37.03
2018-10-17T10:42:43.680Z,34.00
2018-10-17T10:45:11.634Z,37.37
2018-10-17T10:47:40.460Z,36.70
2018-10-17T10:50:13.842Z,36.37
2018-10-17T10:52:41.721Z,35.97
2018-10-17T10:55:15.097Z,34.40
2018-10-17T10:57:46.902Z,35.07
2018-10-17T11:00:16.825Z,36.17
2018-10-17T11:02:45.714Z,34.70
2018-10-17T11:05:18.539Z,34.17
2018-10-17T11:07:46.364Z,32.60
2018-10-17T11:10:25.570Z,35.03
2018-10-17T11:12:54.455Z,33.47
2018-10-17T11:15:25.909Z,30.40
2018-10-17T11:17:55.773Z,32.97
2018-10-17T11:20:27.268Z,31.03
2018-10-17T11:23:00.139Z,31.17
2018-10-17T11:25:35.761Z,31.13
2018-10-17T11:28:05.577Z,32.87
2018-10-17T11:30:45.663Z,32.35
2018-10-17T11:33:19.550Z,30.00
2018-10-17T11:35:59.665Z,29.25
2018-10-17T11:38:33.082Z,28.40
2018-10-17T11:41:03.772Z,29.20
2018-10-17T11:43:42.117Z,27.30
2018-10-17T11:46:20.196Z,24.75
2018-10-17T11:48:48.192Z,25.07
2018-10-17T11:51:17.026Z,25.93
2018-10-17T11:53:48.992Z,25.20
2018-10-17T11:56:28.176Z,22.70
2018-10-17T11:59:02.417Z,23.90
2018-10-17T12:01:34.592Z,24.17
2018-10-17T12:04:07.374Z,22.60
2018-10-17T12:06:38.308Z,24.13
2018-10-17T12:09:11.990Z,24.50
2018-10-17T12:11:40.067Z,24.30
2018-10-17T12:14:22.096Z,23.45
2018-10-17T12:16:49.965Z,22.95
2018-10-17T12:19:18.829Z,22.95
2018-10-17T12:22:00.951Z,23.10
2018-10-17T12:24:38.469Z,21.20
2018-10-17T12:27:08.442Z,23.03
2018-10-17T12:29:43.867Z,21.37
2018-10-17T12:32:16.048Z,23.47
2018-10-17T12:34:47.829Z,24.87
2018-10-17T12:37:16.704Z,22.80
2018-10-17T12:39:45.746Z,24.90
2018-10-17T12:42:14.498Z,23.07
2018-10-17T12:44:48.390Z,24.03
2018-10-17T12:47:20.980Z,24.20
2018-10-17T12:49:54.040Z,24.87
2018-10-17T12:52:25.701Z,23.10
2018-10-17T12:54:58.349Z,23.70
2018-10-17T12:57:31.091Z,23.20
2018-10-17T13:00:07.212Z,25.50
2018-10-17T13:02:41.928Z,23.50
2018-10-17T13:05:15.121Z,21.63
2018-10-17T13:07:45.008Z,21.50
2018-10-17T13:10:13.864Z,22.70
2018-10-17T13:12:48.444Z,21.80
2018-10-17T13:15:19.629Z,22.00
2018-10-17T13:17:51.400Z,22.00
2018-10-17T13:20:21.322Z,21.40
2018-10-17T14:11:42.409Z,21.55
2018-10-17T14:21:47.156Z,21.10
2018-10-17T14:24:17.112Z,22.20
2018-10-17T14:26:45.912Z,20.90
2018-10-17T14:29:15.751Z,22.73
2018-10-17T14:31:56.418Z,21.57
2018-10-17T14:34:32.741Z,21.73
2018-10-17T14:37:00.651Z,21.20
2018-10-17T14:39:38.326Z,23.20
2018-10-17T14:42:09.505Z,23.80
2018-10-17T14:44:43.567Z,22.30
2018-10-17T14:47:14.668Z,21.53
2018-10-17T14:49:42.512Z,22.00
2018-10-17T14:52:10.396Z,24.50
2018-10-17T14:54:38.288Z,23.10
2018-10-17T14:57:07.159Z,24.07
2018-10-17T14:59:35.040Z,23.43
2018-10-17T15:02:05.351Z,24.23
2018-10-17T15:04:34.264Z,23.97
2018-10-17T15:07:03.124Z,25.17
2018-10-17T15:09:38.131Z,24.33
2018-10-17T15:12:06.066Z,24.90
2018-10-17T15:14:33.880Z,25.40
2018-10-17T15:17:02.814Z,26.03
2018-10-17T15:19:30.640Z,25.40
2018-10-17T15:22:06.232Z,24.67
2018-10-17T15:24:46.169Z,25.47
2018-10-17T15:27:14.449Z,24.43
2018-10-17T15:29:43.268Z,25.07
2018-10-17T15:32:21.064Z,25.07
2018-10-17T15:34:54.148Z,26.03
2018-10-17T15:37:27.637Z,25.10
2018-10-17T15:39:55.597Z,24.30
2018-10-17T15:44:57.185Z,25.20
2018-10-17T16:05:05.988Z,28.17
2018-10-17T16:12:39.149Z,29.33
2018-10-17T16:15:10.668Z,29.90
2018-10-17T16:17:38.506Z,31.65
2018-10-17T16:20:08.292Z,31.10
2018-10-17T16:22:38.215Z,30.10
2018-10-17T16:25:08.508Z,31.17
2018-10-17T16:27:36.496Z,32.15
2018-10-17T16:30:08.895Z,30.60
2018-10-17T16:32:38.716Z,32.47
2018-10-17T16:35:06.836Z,35.07
2018-10-17T16:37:36.380Z,39.23
2018-10-17T16:40:05.873Z,52.00
2018-10-17T16:42:33.768Z,57.00
2018-10-17T16:45:01.624Z,58.37
2018-10-17T16:47:31.589Z,50.13
2018-10-17T16:49:59.417Z,43.97
2018-10-17T16:52:27.284Z,45.83
2018-10-17T16:54:55.186Z,46.50
2018-10-17T16:57:23.004Z,43.07
2018-10-17T16:59:54.821Z,47.27
2018-10-17T17:02:26.412Z,44.20
2018-10-17T17:04:55.320Z,47.73
2018-10-17T17:07:24.236Z,51.00
2018-10-17T17:09:55.738Z,47.60
2018-10-17T17:12:24.648Z,46.10
2018-10-17T17:14:57.034Z,46.70
2018-10-17T17:17:25.940Z,46.87
2018-10-17T17:20:01.972Z,46.77
2018-10-17T17:22:31.972Z,47.40
2018-10-17T17:25:00.920Z,50.03
2018-10-17T17:27:33.050Z,47.07
2018-10-17T17:30:01.017Z,44.83
2018-10-17T17:32:33.568Z,48.30
2018-10-17T17:35:03.412Z,48.67
2018-10-17T17:37:32.336Z,46.50
2018-10-17T17:40:01.170Z,44.93
2018-10-17T17:42:29.047Z,47.77
2018-10-17T17:44:57.940Z,44.70
2018-10-17T17:47:26.815Z,43.80
2018-10-17T17:49:54.713Z,40.50
2018-10-17T17:52:26.275Z,42.47
2018-10-17T17:54:55.193Z,40.93
2018-10-17T17:57:24.016Z,41.40
2018-10-17T17:59:51.879Z,44.30
2018-10-17T18:02:21.080Z,44.33
2018-10-17T18:04:48.952Z,44.03
2018-10-17T18:07:21.199Z,44.23
2018-10-17T18:09:50.120Z,45.50
2018-10-17T18:12:20.026Z,44.20
2018-10-17T18:21:54.449Z,41.80
2018-10-17T18:24:22.369Z,42.70
2018-10-17T18:26:51.193Z,43.77
2018-10-17T18:29:22.937Z,42.90
2018-10-17T18:31:55.959Z,41.33
2018-10-17T18:34:23.927Z,41.90
2018-10-17T18:36:51.872Z,41.20
2018-10-17T18:39:20.811Z,41.90
2018-10-17T18:41:53.636Z,43.40
2018-10-17T18:44:22.516Z,43.30
2018-10-17T18:46:57.811Z,44.57
2018-10-17T18:49:26.650Z,41.97
2018-10-17T18:51:55.596Z,42.60
2018-10-17T18:54:30.924Z,42.70
2018-10-17T18:56:58.806Z,43.73
2018-10-17T18:59:29.895Z,41.40
2018-10-17T19:01:57.780Z,42.17
2018-10-17T19:04:25.653Z,43.37
2018-10-17T19:06:54.500Z,43.77
2018-10-17T19:09:23.441Z,40.60
2018-10-17T19:11:52.392Z,42.63
2018-10-17T19:14:21.314Z,42.00
2018-10-17T19:16:50.158Z,41.27
2018-10-17T19:19:18.140Z,40.20
2018-10-17T19:21:47.020Z,42.23
2018-10-17T19:24:14.976Z,42.73
2018-10-17T19:26:42.859Z,42.90
2018-10-17T19:29:13.216Z,42.73
2018-10-17T19:31:41.096Z,42.50
2018-10-17T19:34:10.997Z,39.30
2018-10-17T19:36:40.971Z,40.83
2018-10-17T19:39:09.926Z,40.73
2018-10-17T19:41:37.756Z,41.40
2018-10-17T19:44:06.656Z,41.13
2018-10-17T19:46:34.506Z,42.50
2018-10-17T19:49:08.393Z,43.93
2018-10-17T19:51:38.232Z,42.90
2018-10-17T19:54:07.584Z,41.47
2018-10-17T19:56:36.461Z,40.57
2018-10-17T19:59:04.716Z,40.97
2018-10-17T20:01:36.460Z,40.37
2018-10-17T20:04:05.396Z,41.17
2018-10-17T20:06:34.248Z,39.47
2018-10-17T20:09:02.204Z,42.37
2018-10-17T20:11:32.028Z,42.47
2018-10-17T20:13:59.917Z,44.20
2018-10-17T20:16:29.782Z,44.60
2018-10-17T20:18:58.741Z,44.73
2018-10-17T20:21:32.507Z,48.77
2018-10-17T20:24:00.872Z,45.43
2018-10-17T20:26:29.784Z,45.67
2018-10-17T20:28:58.632Z,46.20
2018-10-17T20:31:26.929Z,45.83
2018-10-17T20:33:54.799Z,45.17
2018-10-17T20:36:22.679Z,46.73
2018-10-17T20:38:52.588Z,47.87
2018-10-17T20:41:21.499Z,46.97
2018-10-17T20:43:52.725Z,52.67
2018-10-17T20:46:20.632Z,50.30
2018-10-17T20:48:49.459Z,50.37
2018-10-17T20:51:17.360Z,45.40
2018-10-17T20:53:46.224Z,48.17
2018-10-17T20:56:16.215Z,49.43
2018-10-17T20:58:45.024Z,48.10
2018-10-17T21:01:16.288Z,46.60
2018-10-17T21:03:45.196Z,48.00
2018-10-17T21:06:15.072Z,48.90
2018-10-17T21:08:42.946Z,48.77
2018-10-17T21:11:10.881Z,48.40
2018-10-17T21:13:38.750Z,47.23
2018-10-17T21:16:06.658Z,46.60
2018-10-17T21:18:35.612Z,46.40
2018-10-17T21:21:04.671Z,44.23
2018-10-17T21:23:34.539Z,47.87
2018-10-17T21:26:04.760Z,45.23
2018-10-17T21:28:32.625Z,45.60
2018-10-17T21:31:02.469Z,45.40
2018-10-17T21:33:31.376Z,47.73
2018-10-17T21:35:59.239Z,48.70
2018-10-17T21:38:30.815Z,46.43
2018-10-17T21:40:58.711Z,49.30
2018-10-17T21:43:26.615Z,50.07
2018-10-17T21:45:54.496Z,48.70
2018-10-17T21:48:23.387Z,48.77
2018-10-17T21:50:51.276Z,50.03
2018-10-17T21:53:20.131Z,49.87
2018-10-17T21:55:49.000Z,48.33
2018-10-17T21:58:16.914Z,48.43
2018-10-17T22:00:45.748Z,48.70
2018-10-17T22:03:13.663Z,48.73
2018-10-17T22:05:42.548Z,48.53
2018-10-17T22:08:10.453Z,51.13
2018-10-17T22:10:40.328Z,54.83
2018-10-17T22:13:09.216Z,52.30
2018-10-17T22:15:39.153Z,51.60
2018-10-17T22:18:06.999Z,49.63
2018-10-17T22:20:35.852Z,48.03
2018-10-17T22:23:04.886Z,52.10
2018-10-17T22:25:33.752Z,49.50
2018-10-17T22:28:03.684Z,48.53
2018-10-17T22:30:31.564Z,50.90
2018-10-17T22:32:59.416Z,49.37
2018-10-17T22:35:28.301Z,50.20
2018-10-17T22:37:57.240Z,48.03
2018-10-17T22:40:28.904Z,50.37
2018-10-17T22:43:01.919Z,49.27
2018-10-17T22:45:29.832Z,49.30
2018-10-17T22:47:59.684Z,51.77
2018-10-17T22:50:28.604Z,50.90
2018-10-17T22:53:00.690Z,51.80
2018-10-17T22:55:29.584Z,50.67
2018-10-17T22:57:59.504Z,50.50
2018-10-17T23:00:27.371Z,49.23
2018-10-17T23:02:55.212Z,49.43
2018-10-17T23:05:39.665Z,49.30
2018-10-17T23:08:08.623Z,50.80
2018-10-17T23:10:37.452Z,50.80
2018-10-17T23:13:05.307Z,48.17
2018-10-17T23:15:44.395Z,49.50
2018-10-17T23:18:12.310Z,50.77
2018-10-17T23:20:41.212Z,50.60
2018-10-17T23:23:10.076Z,50.57
2018-10-17T23:25:37.975Z,50.80
2018-10-17T23:28:05.944Z,52.60
2018-10-17T23:30:33.828Z,51.33
2018-10-17T23:33:01.776Z,48.63
2018-10-17T23:35:30.679Z,51.23
2018-10-17T23:37:59.588Z,52.73
2018-10-17T23:40:28.437Z,52.10
2018-10-17T23:42:56.291Z,51.97
2018-10-17T23:45:26.276Z,52.63
2018-10-17T23:47:54.181Z,52.70
2018-10-17T23:50:23.083Z,54.40
2018-10-17T23:52:52.999Z,55.00
2018-10-17T23:55:20.955Z,54.80
2018-10-17T23:57:49.828Z,52.30
